sensor_id;sensor_type;location;lat;lon;timestamp;pressure;altitude;pressure_sealevel;temperature;humidity
69737;BME280;64476;55.004;73.342;2023-01-10T00:02:27;101771.59;;;-25.18;41.31
69737;BME280;64476;55.004;73.342;2023-01-10T00:05:29;101766.94;;;-25.25;41.52
69737;BME280;64476;55.004;73.342;2023-01-10T00:08:35;101774.91;;;-25.17;41.84
69737;BME280;64476;55.004;73.342;2023-01-10T00:11:37;101777.91;;;-25.21;41.73
69737;BME280;64476;55.004;73.342;2023-01-10T00:15:31;101774.50;;;-25.11;41.44
69737;BME280;64476;55.004;73.342;2023-01-10T00:18:45;101789.97;;;-25.02;41.72
69737;BME280;64476;55.004;73.342;2023-01-10T00:21:48;101773.78;;;-25.10;41.36
69737;BME280;64476;55.004;73.342;2023-01-10T00:24:55;101797.59;;;-24.99;41.61
69737;BME280;64476;55.004;73.342;2023-01-10T00:28:02;101635.88;;;-26.08;40.96
69737;BME280;64476;55.004;73.342;2023-01-10T00:31:19;101786.09;;;-25.10;41.39
69737;BME280;64476;55.004;73.342;2023-01-10T00:34:30;101806.56;;;-25.00;42.11
69737;BME280;64476;55.004;73.342;2023-01-10T00:37:33;101680.69;;;-25.80;41.49
69737;BME280;64476;55.004;73.342;2023-01-10T00:40:34;101740.22;;;-25.52;41.38
69737;BME280;64476;55.004;73.342;2023-01-10T00:47:09;101781.53;;;-25.38;41.11
69737;BME280;64476;55.004;73.342;2023-01-10T00:50:19;101813.22;;;-25.10;41.60
69737;BME280;64476;55.004;73.342;2023-01-10T00:53:21;101804.72;;;-25.14;41.53
69737;BME280;64476;55.004;73.342;2023-01-10T00:56:23;101750.31;;;-25.49;42.18
69737;BME280;64476;55.004;73.342;2023-01-10T00:59:24;101788.41;;;-25.34;41.16
69737;BME280;64476;55.004;73.342;2023-01-10T01:02:27;101771.44;;;-25.41;42.06
69737;BME280;64476;55.004;73.342;2023-01-10T01:05:28;101792.09;;;-25.29;41.23
69737;BME280;64476;55.004;73.342;2023-01-10T01:08:30;101813.97;;;-25.22;42.16
69737;BME280;64476;55.004;73.342;2023-01-10T01:11:36;101814.28;;;-25.29;41.28
69737;BME280;64476;55.004;73.342;2023-01-10T01:14:49;101709.88;;;-25.95;41.66
69737;BME280;64476;55.004;73.342;2023-01-10T01:17:52;101549.88;;;-26.93;41.40
69737;BME280;64476;55.004;73.342;2023-01-10T01:21:35;101765.38;;;-25.67;42.12
69737;BME280;64476;55.004;73.342;2023-01-10T01:24:37;101816.78;;;-25.39;42.06
69737;BME280;64476;55.004;73.342;2023-01-10T01:27:39;101814.69;;;-25.45;41.37
69737;BME280;64476;55.004;73.342;2023-01-10T01:30:41;101789.22;;;-25.55;41.67
69737;BME280;64476;55.004;73.342;2023-01-10T01:33:43;101823.69;;;-25.45;41.34
69737;BME280;64476;55.004;73.342;2023-01-10T01:36:46;101688.44;;;-26.28;41.70
69737;BME280;64476;55.004;73.342;2023-01-10T01:39:48;101824.19;;;-25.49;40.90
69737;BME280;64476;55.004;73.342;2023-01-10T01:42:50;101819.28;;;-25.59;41.69
69737;BME280;64476;55.004;73.342;2023-01-10T01:46:16;101808.34;;;-25.63;41.97
69737;BME280;64476;55.004;73.342;2023-01-10T01:49:21;101802.69;;;-25.62;41.90
69737;BME280;64476;55.004;73.342;2023-01-10T01:52:29;101821.84;;;-25.48;41.79
69737;BME280;64476;55.004;73.342;2023-01-10T01:55:36;101704.78;;;-26.08;41.36
69737;BME280;64476;55.004;73.342;2023-01-10T01:59:06;101793.06;;;-25.59;41.30
69737;BME280;64476;55.004;73.342;2023-01-10T02:02:16;101755.66;;;-25.87;41.88
69737;BME280;64476;55.004;73.342;2023-01-10T02:05:35;101829.50;;;-25.55;41.93
69737;BME280;64476;55.004;73.342;2023-01-10T02:08:44;101751.84;;;-25.83;41.69
69737;BME280;64476;55.004;73.342;2023-01-10T02:11:58;101822.03;;;-25.34;42.07
69737;BME280;64476;55.004;73.342;2023-01-10T02:15:11;101746.41;;;-25.79;41.51
69737;BME280;64476;55.004;73.342;2023-01-10T02:18:18;101731.94;;;-25.97;42.20
69737;BME280;64476;55.004;73.342;2023-01-10T02:21:36;101855.28;;;-25.29;41.55
69737;BME280;64476;55.004;73.342;2023-01-10T02:35:51;101866.28;;;-25.36;41.91
69737;BME280;64476;55.004;73.342;2023-01-10T02:49:21;101878.88;;;-25.43;42.09
69737;BME280;64476;55.004;73.342;2023-01-10T02:52:35;101848.00;;;-25.60;41.79
69737;BME280;64476;55.004;73.342;2023-01-10T02:56:08;101839.28;;;-25.77;41.73
69737;BME280;64476;55.004;73.342;2023-01-10T02:59:17;101892.66;;;-25.45;41.38
69737;BME280;64476;55.004;73.342;2023-01-10T03:06:17;101904.03;;;-25.57;42.04
69737;BME280;64476;55.004;73.342;2023-01-10T03:09:57;101859.66;;;-25.79;41.46
69737;BME280;64476;55.004;73.342;2023-01-10T03:13:57;101908.09;;;-25.58;41.20
69737;BME280;64476;55.004;73.342;2023-01-10T03:16:49;101910.78;;;-25.55;41.46
69737;BME280;64476;55.004;73.342;2023-01-10T03:19:57;101854.38;;;-25.94;42.02
69737;BME280;64476;55.004;73.342;2023-01-10T03:23:12;101879.19;;;-25.81;41.97
69737;BME280;64476;55.004;73.342;2023-01-10T03:26:20;101909.19;;;-25.65;41.35
69737;BME280;64476;55.004;73.342;2023-01-10T03:30:17;101893.13;;;-25.81;41.21
69737;BME280;64476;55.004;73.342;2023-01-10T03:33:04;101863.88;;;-25.99;40.97
69737;BME280;64476;55.004;73.342;2023-01-10T03:36:15;101937.88;;;-25.55;41.33
69737;BME280;64476;55.004;73.342;2023-01-10T03:39:37;101888.94;;;-25.82;41.27
69737;BME280;64476;55.004;73.342;2023-01-10T03:42:59;101943.28;;;-25.59;41.56
69737;BME280;64476;55.004;73.342;2023-01-10T03:46:36;101927.81;;;-25.68;40.79
69737;BME280;64476;55.004;73.342;2023-01-10T03:50:16;101918.06;;;-25.77;41.08
69737;BME280;64476;55.004;73.342;2023-01-10T03:53:19;101933.34;;;-25.71;41.42
69737;BME280;64476;55.004;73.342;2023-01-10T03:56:27;101887.13;;;-26.05;41.49
69737;BME280;64476;55.004;73.342;2023-01-10T03:59:28;101911.34;;;-25.90;41.98
69737;BME280;64476;55.004;73.342;2023-01-10T04:02:31;101937.75;;;-25.77;41.32
69737;BME280;64476;55.004;73.342;2023-01-10T04:05:32;101924.75;;;-25.86;41.39
69737;BME280;64476;55.004;73.342;2023-01-10T04:09:07;101952.28;;;-25.70;41.84
69737;BME280;64476;55.004;73.342;2023-01-10T04:12:18;101902.00;;;-26.04;41.42
69737;BME280;64476;55.004;73.342;2023-01-10T04:15:20;101886.00;;;-26.09;41.30
69737;BME280;64476;55.004;73.342;2023-01-10T04:18:22;101927.47;;;-25.83;41.00
69737;BME280;64476;55.004;73.342;2023-01-10T04:21:34;101853.16;;;-26.30;40.88
69737;BME280;64476;55.004;73.342;2023-01-10T04:28:15;101854.75;;;-26.20;41.56
69737;BME280;64476;55.004;73.342;2023-01-10T04:31:17;101923.75;;;-25.78;41.52
69737;BME280;64476;55.004;73.342;2023-01-10T04:34:29;101944.66;;;-25.62;40.76
69737;BME280;64476;55.004;73.342;2023-01-10T04:38:04;101879.84;;;-26.04;41.27
69737;BME280;64476;55.004;73.342;2023-01-10T04:41:10;101874.41;;;-26.10;41.22
69737;BME280;64476;55.004;73.342;2023-01-10T04:44:17;101959.91;;;-25.56;41.09
69737;BME280;64476;55.004;73.342;2023-01-10T04:47:24;101975.91;;;-25.51;40.97
69737;BME280;64476;55.004;73.342;2023-01-10T04:50:34;101962.13;;;-25.59;41.09
69737;BME280;64476;55.004;73.342;2023-01-10T04:53:36;101951.91;;;-25.74;40.57
69737;BME280;64476;55.004;73.342;2023-01-10T04:56:43;101867.66;;;-26.33;41.00
69737;BME280;64476;55.004;73.342;2023-01-10T04:59:50;101887.97;;;-26.35;41.28
69737;BME280;64476;55.004;73.342;2023-01-10T05:02:55;101972.38;;;-25.65;41.88
69737;BME280;64476;55.004;73.342;2023-01-10T05:06:07;101942.31;;;-25.71;40.92
69737;BME280;64476;55.004;73.342;2023-01-10T05:09:09;101990.09;;;-25.49;41.00
69737;BME280;64476;55.004;73.342;2023-01-10T05:12:10;101892.66;;;-25.98;41.05
69737;BME280;64476;55.004;73.342;2023-01-10T05:15:12;101931.63;;;-25.72;41.26
69737;BME280;64476;55.004;73.342;2023-01-10T05:18:14;101914.66;;;-25.79;41.49
69737;BME280;64476;55.004;73.342;2023-01-10T05:21:16;101997.56;;;-25.27;40.44
69737;BME280;64476;55.004;73.342;2023-01-10T05:24:18;101993.41;;;-25.28;41.80
69737;BME280;64476;55.004;73.342;2023-01-10T05:27:19;101925.19;;;-25.70;41.50
69737;BME280;64476;55.004;73.342;2023-01-10T05:30:21;101963.34;;;-25.44;40.77
69737;BME280;64476;55.004;73.342;2023-01-10T05:33:32;101938.25;;;-25.60;41.31
69737;BME280;64476;55.004;73.342;2023-01-10T05:36:42;101990.06;;;-25.28;41.06
69737;BME280;64476;55.004;73.342;2023-01-10T05:39:44;101996.31;;;-25.22;41.59
69737;BME280;64476;55.004;73.342;2023-01-10T05:42:50;101956.34;;;-25.39;41.11
69737;BME280;64476;55.004;73.342;2023-01-10T05:45:57;101978.38;;;-25.31;41.16
69737;BME280;64476;55.004;73.342;2023-01-10T05:48:58;101998.72;;;-24.91;41.56
69737;BME280;64476;55.004;73.342;2023-01-10T05:52:03;101905.81;;;-25.34;41.59
69737;BME280;64476;55.004;73.342;2023-01-10T05:55:52;102019.34;;;-24.69;39.89
69737;BME280;64476;55.004;73.342;2023-01-10T05:59:03;101993.47;;;-24.74;41.00
69737;BME280;64476;55.004;73.342;2023-01-10T06:02:05;102009.88;;;-24.42;41.27
69737;BME280;64476;55.004;73.342;2023-01-10T06:05:17;101953.69;;;-24.56;40.62
69737;BME280;64476;55.004;73.342;2023-01-10T06:08:24;101969.56;;;-24.31;40.38
69737;BME280;64476;55.004;73.342;2023-01-10T06:11:25;102009.56;;;-24.13;40.70
69737;BME280;64476;55.004;73.342;2023-01-10T06:14:30;102007.97;;;-24.12;39.76
69737;BME280;64476;55.004;73.342;2023-01-10T06:17:34;101924.94;;;-24.56;40.69
69737;BME280;64476;55.004;73.342;2023-01-10T06:20:43;101946.50;;;-24.53;39.78
69737;BME280;64476;55.004;73.342;2023-01-10T06:23:45;102030.66;;;-24.06;40.43
69737;BME280;64476;55.004;73.342;2023-01-10T06:26:46;102021.97;;;-24.01;39.57
69737;BME280;64476;55.004;73.342;2023-01-10T06:29:48;101987.16;;;-24.26;40.34
69737;BME280;64476;55.004;73.342;2023-01-10T06:32:50;101983.88;;;-24.37;40.03
69737;BME280;64476;55.004;73.342;2023-01-10T06:35:52;102018.13;;;-23.98;39.65
69737;BME280;64476;55.004;73.342;2023-01-10T06:38:53;102003.91;;;-24.00;40.64
69737;BME280;64476;55.004;73.342;2023-01-10T06:41:55;102002.47;;;-23.86;40.09
69737;BME280;64476;55.004;73.342;2023-01-10T06:44:56;102011.16;;;-23.58;39.65
69737;BME280;64476;55.004;73.342;2023-01-10T06:48:04;102007.50;;;-23.63;40.04
69737;BME280;64476;55.004;73.342;2023-01-10T06:51:05;101879.53;;;-24.36;40.13
69737;BME280;64476;55.004;73.342;2023-01-10T06:54:17;102022.84;;;-23.22;40.08
69737;BME280;64476;55.004;73.342;2023-01-10T06:57:22;101992.69;;;-23.39;39.44
69737;BME280;64476;55.004;73.342;2023-01-10T07:00:30;101961.28;;;-23.76;39.53
69737;BME280;64476;55.004;73.342;2023-01-10T07:03:32;101918.41;;;-23.88;39.67
69737;BME280;64476;55.004;73.342;2023-01-10T07:06:46;102006.59;;;-23.18;39.57
69737;BME280;64476;55.004;73.342;2023-01-10T07:09:47;102006.75;;;-22.93;39.29
69737;BME280;64476;55.004;73.342;2023-01-10T07:12:53;102014.00;;;-22.83;40.12
69737;BME280;64476;55.004;73.342;2023-01-10T07:16:10;102003.16;;;-22.85;39.59
69737;BME280;64476;55.004;73.342;2023-01-10T07:19:22;101999.47;;;-22.90;39.24
69737;BME280;64476;55.004;73.342;2023-01-10T07:22:25;101982.38;;;-23.34;38.75
69737;BME280;64476;55.004;73.342;2023-01-10T07:25:28;102012.19;;;-22.97;39.51
69737;BME280;64476;55.004;73.342;2023-01-10T07:28:40;101947.03;;;-23.33;39.69
69737;BME280;64476;55.004;73.342;2023-01-10T07:31:42;101999.41;;;-23.03;39.30
69737;BME280;64476;55.004;73.342;2023-01-10T07:34:48;101999.94;;;-22.96;39.51
69737;BME280;64476;55.004;73.342;2023-01-10T07:38:00;101932.84;;;-23.59;39.50
69737;BME280;64476;55.004;73.342;2023-01-10T07:41:04;101965.59;;;-23.61;39.83
69737;BME280;64476;55.004;73.342;2023-01-10T07:44:06;101930.31;;;-23.82;39.93
69737;BME280;64476;55.004;73.342;2023-01-10T07:47:22;101971.16;;;-23.64;39.37
69737;BME280;64476;55.004;73.342;2023-01-10T07:50:24;101875.25;;;-24.27;39.73
69737;BME280;64476;55.004;73.342;2023-01-10T07:53:31;101990.19;;;-23.63;39.43
69737;BME280;64476;55.004;73.342;2023-01-10T07:56:33;102007.06;;;-23.69;40.43
69737;BME280;64476;55.004;73.342;2023-01-10T07:59:40;101968.34;;;-23.92;39.99
69737;BME280;64476;55.004;73.342;2023-01-10T08:02:41;101968.44;;;-23.90;40.23
69737;BME280;64476;55.004;73.342;2023-01-10T08:06:15;102022.50;;;-23.72;40.13
69737;BME280;64476;55.004;73.342;2023-01-10T08:09:17;101993.63;;;-24.06;40.80
69737;BME280;64476;55.004;73.342;2023-01-10T08:12:56;102019.16;;;-23.84;40.65
69737;BME280;64476;55.004;73.342;2023-01-10T08:15:58;101987.44;;;-23.89;40.92
69737;BME280;64476;55.004;73.342;2023-01-10T08:19:31;101900.84;;;-24.48;41.15
69737;BME280;64476;55.004;73.342;2023-01-10T08:22:33;101955.34;;;-24.11;40.73
69737;BME280;64476;55.004;73.342;2023-01-10T08:25:35;102001.97;;;-23.82;40.78
69737;BME280;64476;55.004;73.342;2023-01-10T08:28:48;101867.75;;;-24.62;40.81
69737;BME280;64476;55.004;73.342;2023-01-10T08:31:53;102018.28;;;-23.84;40.21
69737;BME280;64476;55.004;73.342;2023-01-10T08:34:56;102008.66;;;-24.03;40.94
69737;BME280;64476;55.004;73.342;2023-01-10T08:37:59;101781.16;;;-25.32;40.64
69737;BME280;64476;55.004;73.342;2023-01-10T08:41:32;102000.44;;;-23.92;40.67
69737;BME280;64476;55.004;73.342;2023-01-10T08:44:38;101978.75;;;-23.96;41.16
69737;BME280;64476;55.004;73.342;2023-01-10T08:47:39;102026.59;;;-23.60;40.64
69737;BME280;64476;55.004;73.342;2023-01-10T08:50:50;101997.09;;;-23.71;41.06
69737;BME280;64476;55.004;73.342;2023-01-10T08:53:51;102019.72;;;-23.64;40.96
69737;BME280;64476;55.004;73.342;2023-01-10T08:56:53;101908.31;;;-24.25;41.35
69737;BME280;64476;55.004;73.342;2023-01-10T09:00:10;101978.88;;;-23.83;40.48
69737;BME280;64476;55.004;73.342;2023-01-10T09:03:18;102022.75;;;-23.57;41.19
69737;BME280;64476;55.004;73.342;2023-01-10T09:06:19;102009.31;;;-23.60;41.14
69737;BME280;64476;55.004;73.342;2023-01-10T09:09:21;102033.63;;;-23.55;41.15
69737;BME280;64476;55.004;73.342;2023-01-10T09:12:33;101987.50;;;-23.78;41.38
69737;BME280;64476;55.004;73.342;2023-01-10T09:15:54;101984.13;;;-23.78;40.98
69737;BME280;64476;55.004;73.342;2023-01-10T09:18:56;102047.63;;;-23.32;41.11
69737;BME280;64476;55.004;73.342;2023-01-10T09:21:58;102032.50;;;-23.25;40.71
69737;BME280;64476;55.004;73.342;2023-01-10T09:25:10;101979.34;;;-23.41;40.93
69737;BME280;64476;55.004;73.342;2023-01-10T09:28:12;102037.16;;;-23.06;41.18
69737;BME280;64476;55.004;73.342;2023-01-10T09:31:16;101997.25;;;-23.22;41.13
69737;BME280;64476;55.004;73.342;2023-01-10T09:34:17;101953.47;;;-23.35;40.94
69737;BME280;64476;55.004;73.342;2023-01-10T09:37:58;102048.75;;;-22.58;40.38
69737;BME280;64476;55.004;73.342;2023-01-10T09:41:50;101937.78;;;-23.12;40.47
69737;BME280;64476;55.004;73.342;2023-01-10T09:45:02;102048.84;;;-22.44;40.32
69737;BME280;64476;55.004;73.342;2023-01-10T09:48:19;102051.84;;;-22.60;40.37
69737;BME280;64476;55.004;73.342;2023-01-10T09:51:57;101991.09;;;-23.15;40.31
69737;BME280;64476;55.004;73.342;2023-01-10T09:58:31;102023.28;;;-22.92;40.58
69737;BME280;64476;55.004;73.342;2023-01-10T10:01:35;102036.59;;;-22.66;40.36
69737;BME280;64476;55.004;73.342;2023-01-10T10:04:48;102048.13;;;-22.67;41.04
69737;BME280;64476;55.004;73.342;2023-01-10T10:07:57;101938.56;;;-23.36;40.54
69737;BME280;64476;55.004;73.342;2023-01-10T10:19:22;102075.44;;;-22.77;40.15
69737;BME280;64476;55.004;73.342;2023-01-10T10:26:56;102036.69;;;-23.24;40.56
69737;BME280;64476;55.004;73.342;2023-01-10T10:30:21;102061.75;;;-23.19;41.05
69737;BME280;64476;55.004;73.342;2023-01-10T10:36:53;102079.72;;;-23.10;40.29
69737;BME280;64476;55.004;73.342;2023-01-10T10:40:17;102074.25;;;-23.06;40.97
69737;BME280;64476;55.004;73.342;2023-01-10T10:43:33;102084.13;;;-23.06;40.57
69737;BME280;64476;55.004;73.342;2023-01-10T10:46:36;102097.34;;;-23.05;40.87
69737;BME280;64476;55.004;73.342;2023-01-10T10:49:44;102047.72;;;-23.42;40.53
69737;BME280;64476;55.004;73.342;2023-01-10T10:52:47;102111.25;;;-23.07;41.28
69737;BME280;64476;55.004;73.342;2023-01-10T10:55:49;102099.91;;;-23.15;40.75
69737;BME280;64476;55.004;73.342;2023-01-10T10:59:03;102108.09;;;-23.16;41.19
69737;BME280;64476;55.004;73.342;2023-01-10T11:02:24;102106.34;;;-23.29;41.19
69737;BME280;64476;55.004;73.342;2023-01-10T11:05:41;102109.34;;;-23.33;41.49
69737;BME280;64476;55.004;73.342;2023-01-10T11:08:52;102103.84;;;-23.41;41.70
69737;BME280;64476;55.004;73.342;2023-01-10T11:11:56;102103.84;;;-23.41;41.34
69737;BME280;64476;55.004;73.342;2023-01-10T11:15:10;102116.63;;;-23.35;41.42
69737;BME280;64476;55.004;73.342;2023-01-10T11:18:21;102117.38;;;-23.36;40.96
69737;BME280;64476;55.004;73.342;2023-01-10T11:21:24;102096.88;;;-23.57;41.58
69737;BME280;64476;55.004;73.342;2023-01-10T11:27:48;102086.88;;;-23.58;41.22
69737;BME280;64476;55.004;73.342;2023-01-10T11:30:51;102085.91;;;-23.60;41.68
69737;BME280;64476;55.004;73.342;2023-01-10T11:33:53;102099.81;;;-23.51;41.13
69737;BME280;64476;55.004;73.342;2023-01-10T11:37:00;102001.06;;;-24.17;41.05
69737;BME280;64476;55.004;73.342;2023-01-10T11:43:50;102091.59;;;-23.73;41.49
69737;BME280;64476;55.004;73.342;2023-01-10T11:47:23;102117.16;;;-23.61;40.95
69737;BME280;64476;55.004;73.342;2023-01-10T11:50:28;102111.78;;;-23.67;41.62
69737;BME280;64476;55.004;73.342;2023-01-10T12:00:48;102046.56;;;-24.03;41.62
69737;BME280;64476;55.004;73.342;2023-01-10T12:03:54;102082.94;;;-23.78;41.81
69737;BME280;64476;55.004;73.342;2023-01-10T12:10:29;102072.41;;;-23.87;41.57
69737;BME280;64476;55.004;73.342;2023-01-10T12:13:53;102091.97;;;-23.79;41.07
69737;BME280;64476;55.004;73.342;2023-01-10T12:17:00;102032.59;;;-24.24;41.21
69737;BME280;64476;55.004;73.342;2023-01-10T12:20:12;102121.78;;;-23.87;42.09
69737;BME280;64476;55.004;73.342;2023-01-10T12:23:35;102073.56;;;-24.26;41.73
69737;BME280;64476;55.004;73.342;2023-01-10T12:26:42;102093.78;;;-24.20;42.04
69737;BME280;64476;55.004;73.342;2023-01-10T12:29:58;102056.00;;;-24.41;41.91
69737;BME280;64476;55.004;73.342;2023-01-10T12:33:10;102125.44;;;-24.04;41.54
69737;BME280;64476;55.004;73.342;2023-01-10T12:37:00;102119.03;;;-24.02;41.84
69737;BME280;64476;55.004;73.342;2023-01-10T12:40:24;102090.63;;;-24.29;41.74
69737;BME280;64476;55.004;73.342;2023-01-10T12:43:34;102116.34;;;-24.15;41.63
69737;BME280;64476;55.004;73.342;2023-01-10T12:54:05;102122.66;;;-24.19;42.53
69737;BME280;64476;55.004;73.342;2023-01-10T12:57:30;102093.38;;;-24.36;41.63
69737;BME280;64476;55.004;73.342;2023-01-10T13:00:35;102130.28;;;-24.16;41.93
69737;BME280;64476;55.004;73.342;2023-01-10T13:03:53;102120.66;;;-24.13;42.69
69737;BME280;64476;55.004;73.342;2023-01-10T13:10:53;102069.88;;;-24.53;42.46
69737;BME280;64476;55.004;73.342;2023-01-10T13:13:59;102120.34;;;-24.28;41.71
69737;BME280;64476;55.004;73.342;2023-01-10T13:17:28;102137.88;;;-24.25;41.96
69737;BME280;64476;55.004;73.342;2023-01-10T13:20:44;101955.94;;;-25.44;42.86
69737;BME280;64476;55.004;73.342;2023-01-10T13:23:48;102131.53;;;-24.53;42.75
69737;BME280;64476;55.004;73.342;2023-01-10T13:27:00;102068.34;;;-24.94;43.09
69737;BME280;64476;55.004;73.342;2023-01-10T13:34:01;102149.31;;;-24.47;42.49
69737;BME280;64476;55.004;73.342;2023-01-10T13:37:17;102137.94;;;-24.55;42.54
69737;BME280;64476;55.004;73.342;2023-01-10T13:40:26;102133.41;;;-24.61;42.65
69737;BME280;64476;55.004;73.342;2023-01-10T13:43:38;102151.78;;;-24.47;42.08
69737;BME280;64476;55.004;73.342;2023-01-10T13:47:07;102136.88;;;-24.69;42.89
69737;BME280;64476;55.004;73.342;2023-01-10T13:56:44;102140.22;;;-24.58;42.73
69737;BME280;64476;55.004;73.342;2023-01-10T14:00:23;102151.41;;;-24.52;43.46
69737;BME280;64476;55.004;73.342;2023-01-10T14:06:57;101998.69;;;-25.23;42.78
69737;BME280;64476;55.004;73.342;2023-01-10T14:10:28;102137.84;;;-24.47;42.59
69737;BME280;64476;55.004;73.342;2023-01-10T14:14:51;102137.88;;;-24.35;42.88
69737;BME280;64476;55.004;73.342;2023-01-10T14:17:43;102087.81;;;-24.76;42.94
69737;BME280;64476;55.004;73.342;2023-01-10T14:20:59;102107.38;;;-24.57;42.65
69737;BME280;64476;55.004;73.342;2023-01-10T14:24:57;102099.13;;;-24.58;42.57
69737;BME280;64476;55.004;73.342;2023-01-10T14:27:45;102133.19;;;-24.32;43.25
69737;BME280;64476;55.004;73.342;2023-01-10T14:31:05;102062.25;;;-24.67;42.57
69737;BME280;64476;55.004;73.342;2023-01-10T14:34:10;102059.78;;;-24.67;42.54
69737;BME280;64476;55.004;73.342;2023-01-10T14:40:56;102111.16;;;-24.19;43.24
69737;BME280;64476;55.004;73.342;2023-01-10T14:44:17;102133.84;;;-24.02;42.60
69737;BME280;64476;55.004;73.342;2023-01-10T14:47:34;102056.75;;;-24.42;42.47
69737;BME280;64476;55.004;73.342;2023-01-10T14:50:35;102116.56;;;-24.02;42.62
69737;BME280;64476;55.004;73.342;2023-01-10T14:53:37;102110.75;;;-24.03;42.60
69737;BME280;64476;55.004;73.342;2023-01-10T14:56:51;102054.47;;;-24.29;42.79
69737;BME280;64476;55.004;73.342;2023-01-10T15:00:14;102010.91;;;-24.50;43.11
69737;BME280;64476;55.004;73.342;2023-01-10T15:03:21;102131.38;;;-23.80;42.71
69737;BME280;64476;55.004;73.342;2023-01-10T15:06:23;102139.75;;;-23.78;42.28
69737;BME280;64476;55.004;73.342;2023-01-10T15:09:26;102133.59;;;-23.73;42.53
69737;BME280;64476;55.004;73.342;2023-01-10T15:12:28;102123.19;;;-23.69;42.49
69737;BME280;64476;55.004;73.342;2023-01-10T15:15:32;102086.78;;;-23.82;42.43
69737;BME280;64476;55.004;73.342;2023-01-10T15:18:40;102083.41;;;-23.94;42.33
69737;BME280;64476;55.004;73.342;2023-01-10T15:21:45;102040.75;;;-24.25;41.98
69737;BME280;64476;55.004;73.342;2023-01-10T15:25:03;102123.81;;;-23.72;42.25
69737;BME280;64476;55.004;73.342;2023-01-10T15:28:17;102123.94;;;-23.58;42.98
69737;BME280;64476;55.004;73.342;2023-01-10T15:31:28;102051.81;;;-23.98;42.17
69737;BME280;64476;55.004;73.342;2023-01-10T15:34:39;102122.91;;;-23.50;42.62
69737;BME280;64476;55.004;73.342;2023-01-10T15:37:53;102038.78;;;-23.85;42.85
69737;BME280;64476;55.004;73.342;2023-01-10T15:40:58;102090.16;;;-23.48;42.13
69737;BME280;64476;55.004;73.342;2023-01-10T15:57:28;101994.38;;;-23.62;42.57
69737;BME280;64476;55.004;73.342;2023-01-10T16:00:32;102094.03;;;-22.94;42.48
69737;BME280;64476;55.004;73.342;2023-01-10T16:03:48;102069.53;;;-23.03;42.81
69737;BME280;64476;55.004;73.342;2023-01-10T16:07:02;102080.06;;;-22.93;43.17
69737;BME280;64476;55.004;73.342;2023-01-10T16:10:20;102093.94;;;-22.72;42.73
69737;BME280;64476;55.004;73.342;2023-01-10T16:13:32;102011.78;;;-23.15;42.39
69737;BME280;64476;55.004;73.342;2023-01-10T16:16:38;102070.16;;;-22.70;42.34
69737;BME280;64476;55.004;73.342;2023-01-10T16:19:50;102027.25;;;-22.94;43.08
69737;BME280;64476;55.004;73.342;2023-01-10T16:22:57;102025.75;;;-22.92;43.17
69737;BME280;64476;55.004;73.342;2023-01-10T16:26:11;102096.44;;;-22.49;42.92
69737;BME280;64476;55.004;73.342;2023-01-10T16:29:13;102082.75;;;-22.55;42.52
69737;BME280;64476;55.004;73.342;2023-01-10T16:32:14;101991.78;;;-23.06;43.30
69737;BME280;64476;55.004;73.342;2023-01-10T16:35:16;102036.59;;;-22.78;43.31
69737;BME280;64476;55.004;73.342;2023-01-10T16:38:20;102042.50;;;-22.64;43.05
69737;BME280;64476;55.004;73.342;2023-01-10T16:41:24;102024.78;;;-22.71;42.69
69737;BME280;64476;55.004;73.342;2023-01-10T16:44:44;102062.09;;;-22.44;43.21
69737;BME280;64476;55.004;73.342;2023-01-10T16:47:46;102080.47;;;-22.29;43.18
69737;BME280;64476;55.004;73.342;2023-01-10T16:50:48;102055.63;;;-22.30;43.23
69737;BME280;64476;55.004;73.342;2023-01-10T16:53:51;102089.50;;;-22.17;43.16
69737;BME280;64476;55.004;73.342;2023-01-10T16:56:53;102053.69;;;-22.34;43.01
69737;BME280;64476;55.004;73.342;2023-01-10T16:59:56;102039.16;;;-22.53;42.79
69737;BME280;64476;55.004;73.342;2023-01-10T17:03:09;102079.94;;;-22.36;43.20
69737;BME280;64476;55.004;73.342;2023-01-10T17:06:13;102093.09;;;-22.37;42.96
69737;BME280;64476;55.004;73.342;2023-01-10T17:09:26;102081.78;;;-22.34;43.22
69737;BME280;64476;55.004;73.342;2023-01-10T17:12:31;102075.22;;;-22.45;43.44
69737;BME280;64476;55.004;73.342;2023-01-10T17:15:35;102059.63;;;-22.67;43.43
69737;BME280;64476;55.004;73.342;2023-01-10T17:18:42;102064.47;;;-22.81;43.96
69737;BME280;64476;55.004;73.342;2023-01-10T17:21:56;102036.72;;;-23.00;44.26
69737;BME280;64476;55.004;73.342;2023-01-10T17:24:57;102075.34;;;-22.67;43.36
69737;BME280;64476;55.004;73.342;2023-01-10T17:27:59;102089.31;;;-22.56;43.00
69737;BME280;64476;55.004;73.342;2023-01-10T17:31:01;102086.63;;;-22.59;43.50
69737;BME280;64476;55.004;73.342;2023-01-10T17:34:03;102073.19;;;-22.62;42.75
69737;BME280;64476;55.004;73.342;2023-01-10T17:37:08;102071.47;;;-22.52;43.34
69737;BME280;64476;55.004;73.342;2023-01-10T17:40:10;102085.97;;;-22.44;42.76
69737;BME280;64476;55.004;73.342;2023-01-10T17:43:13;102023.69;;;-22.74;43.23
69737;BME280;64476;55.004;73.342;2023-01-10T17:46:15;102093.94;;;-22.25;43.22
69737;BME280;64476;55.004;73.342;2023-01-10T17:49:18;102035.59;;;-22.57;42.92
69737;BME280;64476;55.004;73.342;2023-01-10T17:52:19;102100.94;;;-22.19;43.52
69737;BME280;64476;55.004;73.342;2023-01-10T17:55:21;102095.84;;;-22.21;43.10
69737;BME280;64476;55.004;73.342;2023-01-10T17:58:23;102101.44;;;-22.12;43.03
69737;BME280;64476;55.004;73.342;2023-01-10T18:01:35;102093.31;;;-22.09;43.10